Time;durP1;ratioP1;P1;durP2;ratioP2;P2;SDS_P1;SDS_P2;PMS_P1;PMS_P2;Temp;Humidity;BMP_temperature;BMP_pressure;BME280_temperature;BME280_humidity;BME280_pressure;Samples;Min_cycle;Max_cycle;Signal;HPM_P1;HPM_P2
2023/12/29 00:01:01;;;;;;;5.90;4.37;;;2.70;80.00;;;;;;6286218;28;20192;-66
2023/12/29 00:04:02;;;;;;;6.80;4.23;;;2.70;80.10;;;;;;6288864;28;20191;-66
2023/12/29 00:07:03;;;;;;;4.20;3.63;;;2.70;79.90;;;;;;6256261;28;20294;-66
2023/12/29 00:10:04;;;;;;;5.93;3.80;;;2.70;80.20;;;;;;6261547;28;20201;-66
2023/12/29 00:13:04;;;;;;;6.33;4.13;;;2.70;80.40;;;;;;6258632;28;20278;-66
2023/12/29 00:16:05;;;;;;;6.43;3.87;;;2.70;79.70;;;;;;6279800;28;20192;-66
2023/12/29 00:19:06;;;;;;;7.20;5.00;;;2.60;80.40;;;;;;6266593;28;20234;-66
2023/12/29 00:22:07;;;;;;;6.87;4.70;;;2.50;79.90;;;;;;6263443;28;20658;-66
2023/12/29 00:25:08;;;;;;;7.70;4.53;;;2.50;80.30;;;;;;6261316;28;20199;-66
2023/12/29 00:28:09;;;;;;;8.93;5.00;;;2.50;79.80;;;;;;6265930;28;20213;-66
2023/12/29 00:31:17;;;;;;;8.63;4.87;;;2.50;80.10;;;;;;6290704;28;20202;-66
2023/12/29 00:34:18;;;;;;;8.57;5.33;;;2.50;80.50;;;;;;6305269;28;20691;-66
2023/12/29 00:37:19;;;;;;;6.27;4.27;;;2.40;80.20;;;;;;6271503;28;20214;-66
2023/12/29 00:40:19;;;;;;;8.17;4.67;;;2.40;80.60;;;;;;6263819;28;20210;-66
2023/12/29 00:43:20;;;;;;;7.50;4.33;;;2.40;80.10;;;;;;6282703;28;20192;-66
2023/12/29 00:46:21;;;;;;;8.23;5.03;;;2.40;80.20;;;;;;6281983;28;20196;-66
2023/12/29 00:49:22;;;;;;;9.37;6.00;;;2.40;80.30;;;;;;6266320;28;20652;-66
2023/12/29 00:52:22;;;;;;;7.20;5.17;;;2.40;79.90;;;;;;6272160;28;20292;-66
2023/12/29 00:55:24;;;;;;;7.07;4.40;;;;;;;;;;6287029;28;20200;-66
2023/12/29 00:58:25;;;;;;;6.20;4.43;;;;;;;;;;6285546;28;20225;-66
2023/12/29 01:01:26;;;;;;;6.80;4.77;;;;;;;;;;6281432;28;20184;-66
2023/12/29 01:04:27;;;;;;;5.83;4.13;;;;;;;;;;6304299;28;20184;-66
2023/12/29 01:07:28;;;;;;;8.83;4.13;;;;;;;;;;6307866;28;20226;-66
2023/12/29 01:10:29;;;;;;;5.23;4.00;;;;;;;;;;6284538;28;20192;-66
2023/12/29 01:13:30;;;;;;;6.80;4.27;;;;;;;;;;6293627;28;20189;-65
2023/12/29 01:16:31;;;;;;;9.23;3.67;;;;;;;;;;6280948;28;20208;-65
2023/12/29 01:19:32;;;;;;;5.53;4.70;;;;;;;;;;6282189;28;20216;-66
2023/12/29 01:22:33;;;;;;;6.27;3.90;;;;;;;;;;6289624;28;20220;-66
2023/12/29 01:25:34;;;;;;;5.63;4.03;;;;;;;;;;6272966;28;20197;-66
2023/12/29 01:28:35;;;;;;;5.27;3.97;;;;;;;;;;6285514;28;20335;-66
2023/12/29 01:31:36;;;;;;;6.53;4.10;;;;;;;;;;6286826;28;20279;-65
2023/12/29 01:34:37;;;;;;;4.93;3.87;;;;;;;;;;6297494;28;20218;-65
2023/12/29 01:37:38;;;;;;;5.30;3.53;;;;;;;;;;6290112;28;20221;-65
2023/12/29 01:40:46;;;;;;;3.93;3.30;;;;;;;;;;6314628;28;20229;-66
2023/12/29 01:44:02;;;;;;;8.07;3.67;;;;;;;;;;6304123;28;20214;-66
2023/12/29 01:47:07;;;;;;;5.30;3.70;;;;;;;;;;6298024;28;20190;-66
2023/12/29 01:50:08;;;;;;;5.17;3.30;;;;;;;;;;6301926;28;20196;-66
2023/12/29 01:53:09;;;;;;;4.07;3.47;;;;;;;;;;6295415;28;20279;-66
2023/12/29 01:56:11;;;;;;;4.53;3.53;;;;;;;;;;6282863;28;20248;-66
2023/12/29 01:59:12;;;;;;;6.33;4.20;;;;;;;;;;6298611;28;20195;-66
2023/12/29 02:02:15;;;;;;;5.83;3.90;;;;;;;;;;6286876;28;20197;-65
2023/12/29 02:05:17;;;;;;;5.03;3.50;;;;;;;;;;6290007;28;20200;-65
2023/12/29 02:08:18;;;;;;;5.13;3.40;;;;;;;;;;6315109;28;20195;-65
2023/12/29 02:11:19;;;;;;;4.93;3.43;;;;;;;;;;6292881;28;20193;-65
2023/12/29 02:14:21;;;;;;;5.17;3.37;;;;;;;;;;6281365;28;20184;-65
2023/12/29 02:17:24;;;;;;;4.93;3.23;;;;;;;;;;6291741;28;20351;-66
2023/12/29 02:20:26;;;;;;;4.00;3.03;;;;;;;;;;6301021;28;20276;-66
2023/12/29 02:23:27;;;;;;;5.37;3.40;;;;;;;;;;6303959;28;20200;-66
2023/12/29 02:26:30;;;;;;;4.83;3.33;;;;;;;;;;6288302;28;20191;-66
2023/12/29 02:29:33;;;;;;;4.67;3.60;;;;;;;;;;6302503;28;20184;-66
2023/12/29 02:32:36;;;;;;;5.60;3.97;;;;;;;;;;6300262;28;20188;-66
2023/12/29 02:35:43;;;;;;;6.67;3.80;;;;;;;;;;6294626;28;20247;-66
2023/12/29 02:38:44;;;;;;;6.00;3.50;;;;;;;;;;6305910;28;20209;-66
2023/12/29 02:41:45;;;;;;;5.50;2.67;;;;;;;;;;6306254;28;20204;-65
2023/12/29 02:44:46;;;;;;;5.93;3.27;;;;;;;;;;6295568;28;20310;-65
2023/12/29 02:47:47;;;;;;;3.47;3.00;;;2.40;79.90;;;;;;6269957;28;20279;-66
2023/12/29 02:50:48;;;;;;;4.87;3.13;;;2.20;79.70;;;;;;6263860;28;20197;-66
2023/12/29 02:53:49;;;;;;;3.47;2.97;;;2.20;79.50;;;;;;6268745;28;20187;-66
2023/12/29 02:56:50;;;;;;;3.93;3.47;;;2.20;80.10;;;;;;6270327;28;20232;-66
2023/12/29 02:59:51;;;;;;;4.27;3.03;;;2.10;79.80;;;;;;6267870;28;20241;-66
2023/12/29 03:02:51;;;;;;;4.63;3.20;;;2.10;80.10;;;;;;6257719;28;20188;-66
2023/12/29 03:05:52;;;;;;;5.43;3.40;;;2.10;80.40;;;;;;6273106;28;20276;-66
2023/12/29 03:08:53;;;;;;;4.60;2.97;;;2.10;80.00;;;;;;6278077;28;20189;-66
2023/12/29 03:11:53;;;;;;;3.93;3.10;;;2.20;80.10;;;;;;6283321;28;20264;-66
2023/12/29 03:14:54;;;;;;;5.23;3.50;;;2.20;79.90;;;;;;6272839;28;20191;-66
2023/12/29 03:17:55;;;;;;;5.00;3.50;;;2.20;80.00;;;;;;6269883;28;20212;-66
2023/12/29 03:20:55;;;;;;;5.60;2.80;;;2.20;79.80;;;;;;6283573;28;20229;-66
2023/12/29 03:23:56;;;;;;;3.27;2.60;;;2.10;79.40;;;;;;6275386;28;20215;-66
2023/12/29 03:26:57;;;;;;;3.90;2.93;;;2.10;79.50;;;;;;6272288;28;20187;-65
2023/12/29 03:29:58;;;;;;;6.30;3.63;;;2.10;80.00;;;;;;6283412;28;20295;-65
2023/12/29 03:32:58;;;;;;;6.53;3.77;;;2.10;79.40;;;;;;6253546;28;20691;-66
2023/12/29 03:35:59;;;;;;;4.13;2.97;;;2.00;79.70;;;;;;6263613;28;20189;-65
2023/12/29 03:39:00;;;;;;;4.77;3.17;;;2.00;79.80;;;;;;6271537;28;20256;-65
2023/12/29 03:42:01;;;;;;;4.63;3.60;;;2.00;80.00;;;;;;6269335;28;20870;-65
2023/12/29 03:45:01;;;;;;;6.97;3.20;;;2.00;79.70;;;;;;6292541;28;20282;-65
2023/12/29 03:48:02;;;;;;;5.70;3.10;;;;;;;;;;6265625;28;20197;-66
2023/12/29 03:51:04;;;;;;;4.00;2.57;;;;;;;;;;6298420;28;20184;-65
2023/12/29 03:54:05;;;;;;;4.03;2.67;;;;;;;;;;6292015;28;20192;-65
2023/12/29 03:57:05;;;;;;;3.10;2.57;;;2.00;80.20;;;;;;6309367;28;20243;-66
2023/12/29 04:00:07;;;;;;;3.53;2.83;;;2.00;79.60;;;;;;6258997;28;20275;-66
2023/12/29 04:03:08;;;;;;;4.60;2.90;;;2.00;79.90;;;;;;6290740;28;20238;-66
2023/12/29 04:06:09;;;;;;;3.33;2.63;;;1.90;79.90;;;;;;6262863;28;20192;-64
2023/12/29 04:09:09;;;;;;;4.23;2.90;;;1.90;79.80;;;;;;6296492;28;20188;-64
2023/12/29 04:12:10;;;;;;;3.80;2.63;;;1.90;80.10;;;;;;6255748;28;20224;-64
2023/12/29 04:15:11;;;;;;;3.63;3.03;;;1.90;79.90;;;;;;6269257;28;20186;-64
2023/12/29 04:18:12;;;;;;;5.37;3.10;;;;;;;;;;6296904;28;20213;-64
2023/12/29 04:21:14;;;;;;;4.73;3.00;;;;;;;;;;6284204;28;20180;-65
2023/12/29 04:24:15;;;;;;;4.53;2.77;;;;;;;;;;6275589;28;20199;-66
2023/12/29 04:27:16;;;;;;;3.70;2.83;;;;;;;;;;6305231;28;20196;-66
2023/12/29 04:30:17;;;;;;;3.50;2.90;;;;;;;;;;6298475;28;20238;-66
2023/12/29 04:33:18;;;;;;;5.43;3.10;;;;;;;;;;6279137;28;20192;-65
2023/12/29 04:36:19;;;;;;;3.97;3.17;;;;;;;;;;6290838;28;20192;-65
2023/12/29 04:39:20;;;;;;;4.57;3.07;;;;;;;;;;6287694;28;20185;-65
2023/12/29 04:42:21;;;;;;;4.17;3.27;;;;;;;;;;6291803;28;20190;-65
2023/12/29 04:45:22;;;;;;;4.63;2.93;;;;;;;;;;6287271;28;20188;-66
2023/12/29 04:48:23;;;;;;;4.50;3.13;;;;;;;;;;6288098;28;20198;-66
2023/12/29 04:51:24;;;;;;;5.67;3.40;;;;;;;;;;6282353;28;20238;-66
2023/12/29 04:54:25;;;;;;;4.97;3.23;;;;;;;;;;6300353;28;20230;-66
2023/12/29 04:57:27;;;;;;;4.67;3.03;;;;;;;;;;6290480;28;20260;-66
2023/12/29 05:00:28;;;;;;;4.53;2.80;;;;;;;;;;6284319;28;20195;-66
2023/12/29 05:03:29;;;;;;;3.30;3.00;;;;;;;;;;6275752;28;20193;-66
2023/12/29 05:06:30;;;;;;;4.10;2.87;;;;;;;;;;6295369;28;20212;-67
2023/12/29 05:09:31;;;;;;;3.27;2.83;;;;;;;;;;6286879;28;20283;-66
2023/12/29 05:12:32;;;;;;;3.00;2.70;;;;;;;;;;6280298;28;20249;-66
2023/12/29 05:15:33;;;;;;;4.63;3.10;;;;;;;;;;6276382;28;20246;-66
2023/12/29 05:18:34;;;;;;;4.70;3.13;;;;;;;;;;6283126;28;20346;-66
2023/12/29 05:21:35;;;;;;;5.37;3.47;;;;;;;;;;6284806;28;20192;-66
2023/12/29 05:24:36;;;;;;;5.73;3.20;;;;;;;;;;6288092;28;20194;-66
2023/12/29 05:27:37;;;;;;;3.60;2.60;;;;;;;;;;6284939;28;20211;-66
2023/12/29 05:30:38;;;;;;;3.50;2.93;;;;;;;;;;6307184;28;20195;-66
2023/12/29 05:33:39;;;;;;;4.70;3.20;;;;;;;;;;6284317;28;20193;-66
2023/12/29 05:36:42;;;;;;;3.97;3.17;;;;;;;;;;6288715;28;20217;-66
2023/12/29 05:39:43;;;;;;;3.87;2.83;;;;;;;;;;6280920;28;20196;-66
2023/12/29 05:42:44;;;;;;;5.20;3.43;;;;;;;;;;6283460;28;20200;-66
2023/12/29 05:45:45;;;;;;;4.33;2.93;;;;;;;;;;6299742;28;20279;-66
2023/12/29 05:48:47;;;;;;;3.53;2.87;;;;;;;;;;6288731;28;20192;-65
2023/12/29 05:51:48;;;;;;;4.60;2.97;;;;;;;;;;6295437;28;20189;-65
2023/12/29 05:54:49;;;;;;;4.20;2.90;;;;;;;;;;6288394;28;20253;-65
2023/12/29 05:57:50;;;;;;;4.60;3.20;;;;;;;;;;6285979;28;20247;-65
2023/12/29 06:00:51;;;;;;;4.13;3.03;;;;;;;;;;6284106;28;20195;-66
2023/12/29 06:03:52;;;;;;;4.47;3.27;;;;;;;;;;6287575;28;20262;-65
2023/12/29 06:06:53;;;;;;;4.90;3.63;;;;;;;;;;6300002;28;20207;-65
2023/12/29 06:09:54;;;;;;;4.93;3.23;;;;;;;;;;6284952;28;20207;-66
2023/12/29 06:12:55;;;;;;;4.03;2.80;;;;;;;;;;6271878;28;20232;-65
2023/12/29 06:15:56;;;;;;;4.37;3.33;;;;;;;;;;6302640;28;20189;-65
2023/12/29 06:18:58;;;;;;;5.40;3.13;;;;;;;;;;6275769;28;20212;-65
2023/12/29 06:21:59;;;;;;;5.13;3.53;;;;;;;;;;6296163;28;20196;-66
2023/12/29 06:25:00;;;;;;;4.27;2.93;;;;;;;;;;6297046;28;20176;-65
2023/12/29 06:28:02;;;;;;;4.47;3.40;;;;;;;;;;6296306;28;20188;-66
2023/12/29 06:31:04;;;;;;;5.27;3.23;;;;;;;;;;6303840;28;20632;-67
2023/12/29 06:34:05;;;;;;;4.40;3.10;;;;;;;;;;6288123;28;20284;-65
2023/12/29 06:37:06;;;;;;;4.60;3.13;;;;;;;;;;6287938;28;20265;-65
2023/12/29 06:40:07;;;;;;;4.13;3.33;;;;;;;;;;6285341;28;20207;-65
2023/12/29 06:43:08;;;;;;;3.13;2.60;;;;;;;;;;6295055;28;20181;-65
2023/12/29 06:46:09;;;;;;;5.00;3.47;;;;;;;;;;6293442;28;20191;-65
2023/12/29 06:49:11;;;;;;;4.53;3.20;;;;;;;;;;6285393;28;20195;-65
2023/12/29 06:52:12;;;;;;;3.87;3.03;;;;;;;;;;6291901;28;20314;-66
2023/12/29 06:55:13;;;;;;;4.33;3.03;;;;;;;;;;6285806;28;20223;-66
2023/12/29 06:58:14;;;;;;;4.77;3.20;;;;;;;;;;6279453;28;20228;-64
2023/12/29 07:01:15;;;;;;;9.00;5.37;;;;;;;;;;6300627;28;20213;-64
2023/12/29 07:04:16;;;;;;;5.33;4.13;;;;;;;;;;6284613;28;20247;-64
2023/12/29 07:07:18;;;;;;;6.63;4.23;;;;;;;;;;6290953;28;20275;-64
2023/12/29 07:10:19;;;;;;;6.23;4.43;;;;;;;;;;6283936;28;20196;-64
2023/12/29 07:13:20;;;;;;;5.33;4.30;;;;;;;;;;6278003;28;20252;-64
2023/12/29 07:16:21;;;;;;;6.53;3.80;;;;;;;;;;6282185;28;20718;-64
2023/12/29 07:19:22;;;;;;;5.23;3.90;;;;;;;;;;6289469;28;20200;-64
2023/12/29 07:22:23;;;;;;;5.00;3.63;;;;;;;;;;6277513;28;20296;-64
2023/12/29 07:25:24;;;;;;;4.33;3.60;;;;;;;;;;6286300;28;20222;-64
2023/12/29 07:28:26;;;;;;;4.60;3.60;;;;;;;;;;6289400;28;20203;-64
2023/12/29 07:31:27;;;;;;;4.23;3.47;;;;;;;;;;6285064;28;20192;-64
2023/12/29 07:34:30;;;;;;;6.37;3.97;;;;;;;;;;6279988;28;20192;-64
2023/12/29 07:37:31;;;;;;;4.87;3.40;;;;;;;;;;6293098;28;20289;-65
2023/12/29 07:40:32;;;;;;;7.07;3.30;;;;;;;;;;6289121;28;20218;-63
2023/12/29 07:43:33;;;;;;;3.77;2.90;;;;;;;;;;6292680;28;20199;-63
2023/12/29 07:46:34;;;;;;;4.03;2.90;;;;;;;;;;6274760;28;20292;-63
2023/12/29 07:49:35;;;;;;;3.70;3.03;;;;;;;;;;6278259;28;20192;-63
2023/12/29 07:52:36;;;;;;;4.07;3.07;;;;;;;;;;6279560;28;20216;-64
2023/12/29 07:55:39;;;;;;;4.60;3.70;;;;;;;;;;6285892;28;20286;-64
2023/12/29 07:58:40;;;;;;;4.20;3.23;;;;;;;;;;6299516;28;20208;-64
2023/12/29 08:01:41;;;;;;;4.70;3.40;;;;;;;;;;6287855;28;20655;-63
2023/12/29 08:04:45;;;;;;;3.80;3.07;;;;;;;;;;6281111;28;20189;-65
2023/12/29 08:07:46;;;;;;;6.73;3.10;;;;;;;;;;6280577;28;20327;-64
2023/12/29 08:10:47;;;;;;;3.73;2.93;;;;;;;;;;6299205;28;20192;-64
2023/12/29 08:13:49;;;;;;;4.50;2.90;;;;;;;;;;6300659;28;20233;-63
2023/12/29 08:16:50;;;;;;;4.10;2.97;;;;;;;;;;6288820;28;20209;-63
2023/12/29 08:19:51;;;;;;;5.37;3.13;;;;;;;;;;6280527;28;20199;-63
2023/12/29 08:22:52;;;;;;;4.13;2.87;;;;;;;;;;6290328;28;20647;-63
2023/12/29 08:25:53;;;;;;;3.23;2.63;;;;;;;;;;6286562;28;20208;-63
2023/12/29 08:28:54;;;;;;;5.27;3.13;;;;;;;;;;6313611;28;20191;-63
2023/12/29 08:31:55;;;;;;;4.50;3.10;;;;;;;;;;6293661;28;20192;-63
2023/12/29 08:34:56;;;;;;;4.47;2.87;;;;;;;;;;6297892;28;20210;-63
2023/12/29 08:37:57;;;;;;;4.87;3.10;;;;;;;;;;6293610;28;20223;-63
2023/12/29 08:40:58;;;;;;;6.07;3.90;;;;;;;;;;6289502;28;20185;-64
2023/12/29 08:43:59;;;;;;;5.47;4.27;;;;;;;;;;6278292;28;20197;-64
2023/12/29 08:47:01;;;;;;;4.80;3.33;;;;;;;;;;6281057;28;20203;-63
2023/12/29 08:50:02;;;;;;;4.47;3.17;;;;;;;;;;6289556;28;20268;-64
2023/12/29 08:53:03;;;;;;;4.07;2.90;;;;;;;;;;6288806;28;20212;-64
2023/12/29 08:56:04;;;;;;;6.50;3.23;;;;;;;;;;6296462;28;20238;-64
2023/12/29 08:59:05;;;;;;;4.70;3.30;;;;;;;;;;6290684;28;20208;-64
2023/12/29 09:02:07;;;;;;;4.80;3.30;;;;;;;;;;6296541;28;20227;-64
2023/12/29 09:05:08;;;;;;;4.53;3.17;;;;;;;;;;6285767;28;20200;-64
2023/12/29 09:08:10;;;;;;;5.30;3.97;;;;;;;;;;6297443;28;20199;-64
2023/12/29 09:11:11;;;;;;;4.23;3.23;;;;;;;;;;6284698;28;20234;-64
2023/12/29 09:14:12;;;;;;;4.20;2.90;;;;;;;;;;6293508;28;20203;-64
2023/12/29 09:17:13;;;;;;;6.87;3.80;;;;;;;;;;6309348;28;20204;-64
2023/12/29 09:20:14;;;;;;;3.50;2.97;;;;;;;;;;6292050;28;20190;-64
2023/12/29 09:23:15;;;;;;;5.47;3.60;;;;;;;;;;6301857;28;20260;-64
2023/12/29 09:26:16;;;;;;;4.43;2.83;;;;;;;;;;6284616;28;20220;-64
2023/12/29 09:29:17;;;;;;;4.00;2.87;;;;;;;;;;6274374;28;20200;-64
2023/12/29 09:32:18;;;;;;;2.93;2.57;;;;;;;;;;6285022;28;20190;-64
2023/12/29 09:35:20;;;;;;;4.23;3.00;;;;;;;;;;6287030;28;20196;-64
2023/12/29 09:38:21;;;;;;;3.43;2.80;;;;;;;;;;6291254;28;20284;-64
2023/12/29 09:41:25;;;;;;;5.40;2.93;;;;;;;;;;6298422;28;20199;-64
2023/12/29 09:44:28;;;;;;;3.03;2.30;;;;;;;;;;6298563;28;20195;-64
2023/12/29 09:47:30;;;;;;;4.33;2.60;;;;;;;;;;6293553;28;20338;-64
2023/12/29 09:50:32;;;;;;;4.13;2.70;;;1.90;79.80;;;;;;6297924;28;20185;-65
2023/12/29 09:53:36;;;;;;;3.00;2.37;;;5.00;68.50;;;;;;6296047;28;20189;-64
2023/12/29 09:56:38;;;;;;;4.57;2.60;;;5.00;68.30;;;;;;6312468;28;20227;-65
2023/12/29 09:59:41;;;;;;;5.07;3.00;;;;;;;;;;6305541;28;20211;-64
2023/12/29 10:02:42;;;;;;;4.13;3.20;;;5.20;67.50;;;;;;6285234;28;20196;-64
2023/12/29 10:05:45;;;;;;;3.17;2.70;;;;;;;;;;6271334;28;20188;-65
2023/12/29 10:08:46;;;;;;;2.43;2.23;;;;;;;;;;6303166;28;20186;-64
2023/12/29 10:11:48;;;;;;;3.30;2.63;;;5.30;67.50;;;;;;6292977;28;20185;-65
2023/12/29 10:15:26;;;;;;;3.33;2.13;;;5.80;63.70;;;;;;6299344;28;20196;-65
2023/12/29 10:18:57;;;;;;;3.03;2.50;;;;;;;;;;6296124;28;20274;-64
2023/12/29 10:22:04;;;;;;;4.80;2.57;;;;;;;;;;6277506;28;20244;-65
2023/12/29 10:25:05;;;;;;;2.97;2.23;;;;;;;;;;6289608;28;20208;-64
2023/12/29 10:28:06;;;;;;;3.10;2.40;;;;;;;;;;6310990;28;20208;-64
2023/12/29 10:31:10;;;;;;;3.80;2.30;;;;;;;;;;6307675;28;20204;-64
2023/12/29 10:34:18;;;;;;;2.73;2.30;;;;;;;;;;6308848;28;20192;-65
2023/12/29 10:37:23;;;;;;;3.40;2.50;;;;;;;;;;6283616;28;20213;-64
2023/12/29 10:40:23;;;;;;;4.07;2.60;;;5.90;63.40;;;;;;6296537;28;20193;-65
2023/12/29 10:43:24;;;;;;;4.03;2.50;;;6.50;60.80;;;;;;6269400;28;20223;-65
2023/12/29 10:46:25;;;;;;;2.77;2.47;;;6.60;61.20;;;;;;6278343;28;20223;-66
2023/12/29 10:49:26;;;;;;;2.63;2.20;;;6.60;61.30;;;;;;6290183;28;20201;-66
2023/12/29 10:52:26;;;;;;;3.30;2.70;;;6.60;61.50;;;;;;6266489;28;20203;-67
2023/12/29 10:55:32;;;;;;;3.53;2.23;;;6.70;60.50;;;;;;6289728;28;20279;-65
2023/12/29 10:58:37;;;;;;;3.73;2.70;;;6.80;60.80;;;;;;6315486;28;20213;-66
2023/12/29 11:01:37;;;;;;;3.47;1.83;;;6.90;60.80;;;;;;6270274;28;20194;-65
2023/12/29 11:04:39;;;;;;;4.23;2.43;;;6.90;60.00;;;;;;6274120;28;20203;-64
2023/12/29 11:07:41;;;;;;;2.97;2.43;;;6.90;60.40;;;;;;6272445;28;20254;-65
2023/12/29 11:10:43;;;;;;;3.07;2.10;;;7.00;59.00;;;;;;6271947;28;20193;-64
2023/12/29 11:13:46;;;;;;;3.80;2.50;;;7.20;59.50;;;;;;6273916;28;20257;-64
2023/12/29 11:16:49;;;;;;;4.00;2.30;;;7.20;59.40;;;;;;6265889;28;20213;-64
2023/12/29 11:19:52;;;;;;;3.63;2.67;;;7.40;58.10;;;;;;6286089;28;20189;-66
2023/12/29 11:22:54;;;;;;;3.93;2.40;;;7.50;58.20;;;;;;6301632;28;20642;-66
2023/12/29 11:25:55;;;;;;;3.07;2.50;;;7.50;58.30;;;;;;6270548;28;20192;-66
2023/12/29 11:28:56;;;;;;;3.30;2.53;;;7.50;57.80;;;;;;6263771;28;20255;-66
2023/12/29 11:32:00;;;;;;;3.73;2.33;;;7.60;58.50;;;;;;6278530;28;20283;-66
2023/12/29 11:35:15;;;;;;;2.97;2.30;;;7.80;58.50;;;;;;6300131;28;20242;-64
2023/12/29 11:38:47;;;;;;;3.27;2.23;;;7.80;58.10;;;;;;6297514;28;20220;-63
2023/12/29 11:42:04;;;;;;;2.43;2.23;;;7.90;57.60;;;;;;6286865;28;20194;-64
2023/12/29 11:45:36;;;;;;;3.83;2.07;;;8.00;58.00;;;;;;6283279;28;20193;-63
2023/12/29 11:49:03;;;;;;;3.13;2.20;;;8.00;58.40;;;;;;6297390;28;20202;-62
2023/12/29 11:52:04;;;;;;;2.23;1.43;;;8.00;58.40;;;;;;6294452;28;20267;-62
2023/12/29 11:55:28;;;;;;;3.73;2.60;;;8.20;58.60;;;;;;6276056;28;20255;-62
2023/12/29 11:58:30;;;;;;;3.73;2.00;;;;;;;;;;6284600;28;20212;-64
2023/12/29 12:01:35;;;;;;;2.67;1.90;;;8.30;57.20;;;;;;6279048;28;20283;-64
2023/12/29 12:04:54;;;;;;;2.20;1.87;;;8.60;55.80;;;;;;6305458;28;20181;-65
2023/12/29 12:07:55;;;;;;;4.10;2.40;;;8.80;55.90;;;;;;6263741;28;20272;-63
2023/12/29 12:10:57;;;;;;;3.60;2.40;;;8.90;55.20;;;;;;6290816;28;20192;-63
2023/12/29 12:13:58;;;;;;;3.00;2.20;;;9.00;54.60;;;;;;6278762;28;20189;-63
2023/12/29 12:16:58;;;;;;;3.33;2.10;;;9.10;55.00;;;;;;6285499;28;20226;-63
2023/12/29 12:20:09;;;;;;;3.90;2.33;;;9.20;54.80;;;;;;6287051;28;20257;-64
2023/12/29 12:23:20;;;;;;;3.10;1.97;;;9.30;54.50;;;;;;6272883;28;20193;-63
2023/12/29 12:26:24;;;;;;;2.50;2.23;;;9.40;54.80;;;;;;6277955;28;20192;-63
2023/12/29 12:29:25;;;;;;;3.77;2.40;;;9.50;54.20;;;;;;6296905;28;20218;-63
2023/12/29 12:32:27;;;;;;;2.43;2.20;;;9.60;54.00;;;;;;6268292;28;20556;-63
2023/12/29 12:35:28;;;;;;;3.77;2.10;;;9.60;54.10;;;;;;6290514;28;20194;-63
2023/12/29 12:38:31;;;;;;;5.57;3.60;;;9.70;53.60;;;;;;6280745;28;20279;-63
2023/12/29 12:41:33;;;;;;;7.23;4.17;;;;;;;;;;6265454;28;20316;-64
2023/12/29 12:44:34;;;;;;;5.53;4.27;;;;;;;;;;6282056;28;20287;-65
2023/12/29 12:47:42;;;;;;;5.40;4.57;;;;;;;;;;6298309;28;20184;-64
2023/12/29 12:50:45;;;;;;;8.27;5.90;;;;;;;;;;6302874;28;20232;-64
2023/12/29 12:53:48;;;;;;;7.57;6.20;;;;;;;;;;6298085;28;20210;-63
2023/12/29 12:56:49;;;;;;;10.67;5.67;;;;;;;;;;6286619;28;20945;-63
2023/12/29 12:59:51;;;;;;;6.87;4.57;;;;;;;;;;6279452;28;20220;-63
2023/12/29 13:02:52;;;;;;;7.23;5.33;;;;;;;;;;6286635;28;20185;-63
2023/12/29 13:05:53;;;;;;;7.67;4.67;;;;;;;;;;6283614;28;20193;-63
2023/12/29 13:08:54;;;;;;;6.07;4.30;;;;;;;;;;6322626;28;20200;-63
2023/12/29 13:12:14;;;;;;;6.83;5.37;;;;;;;;;;6289866;28;20188;-63
2023/12/29 13:15:15;;;;;;;7.40;4.87;;;;;;;;;;6298472;28;20185;-63
2023/12/29 13:18:16;;;;;;;6.40;4.30;;;;;;;;;;6293536;28;20261;-63
2023/12/29 13:21:18;;;;;;;5.50;4.50;;;;;;;;;;6303799;28;20191;-63
2023/12/29 13:24:19;;;;;;;7.10;4.43;;;;;;;;;;6286034;28;20184;-63
2023/12/29 13:27:21;;;;;;;6.23;4.07;;;;;;;;;;6292288;28;20197;-63
2023/12/29 13:30:22;;;;;;;10.07;4.23;;;;;;;;;;6282432;28;20191;-63
2023/12/29 13:33:35;;;;;;;6.03;3.57;;;;;;;;;;6304467;28;20223;-63
2023/12/29 13:36:42;;;;;;;9.10;4.17;;;;;;;;;;6294520;28;20212;-64
2023/12/29 13:39:52;;;;;;;6.63;4.97;;;;;;;;;;6297306;28;20215;-64
2023/12/29 13:42:55;;;;;;;6.40;5.23;;;;;;;;;;6316957;28;20192;-64
2023/12/29 13:45:57;;;;;;;9.07;6.53;;;;;;;;;;6294303;28;20193;-64
2023/12/29 13:48:58;;;;;;;9.63;5.90;;;;;;;;;;6302646;28;20217;-64
2023/12/29 13:52:01;;;;;;;8.80;5.10;;;;;;;;;;6305364;28;20262;-63
2023/12/29 13:55:03;;;;;;;7.80;4.83;;;;;;;;;;6300781;28;20280;-64
2023/12/29 13:58:10;;;;;;;6.50;4.57;;;;;;;;;;6289497;28;20246;-64
2023/12/29 14:01:11;;;;;;;5.57;3.77;;;;;;;;;;6294728;28;20259;-64
2023/12/29 14:04:12;;;;;;;4.83;3.80;;;;;;;;;;6286192;28;20266;-64
2023/12/29 14:07:14;;;;;;;6.53;3.60;;;;;;;;;;6300163;28;20192;-63
2023/12/29 14:10:15;;;;;;;4.43;3.03;;;;;;;;;;6287139;28;20189;-68
2023/12/29 14:13:17;;;;;;;4.50;3.23;;;;;;;;;;6290547;28;20193;-70
2023/12/29 14:16:20;;;;;;;6.13;3.20;;;;;;;;;;6303234;28;20185;-68
2023/12/29 14:19:21;;;;;;;4.87;3.50;;;;;;;;;;6287916;28;20299;-69
2023/12/29 14:22:23;;;;;;;4.93;3.43;;;;;;;;;;6291446;28;20185;-68
2023/12/29 14:25:24;;;;;;;7.80;3.97;;;;;;;;;;6278452;28;20181;-68
2023/12/29 14:28:25;;;;;;;4.83;3.53;;;;;;;;;;6273748;28;20196;-63
2023/12/29 14:31:26;;;;;;;5.13;3.80;;;;;;;;;;6284592;28;20249;-66
2023/12/29 14:34:27;;;;;;;5.77;4.03;;;;;;;;;;6298664;28;20202;-66
2023/12/29 14:37:29;;;;;;;5.50;3.70;;;;;;;;;;6300050;28;20233;-66
2023/12/29 14:40:30;;;;;;;3.20;2.60;;;;;;;;;;6303100;28;20188;-67
2023/12/29 14:43:31;;;;;;;4.87;3.37;;;;;;;;;;6302581;28;20195;-68
2023/12/29 14:46:36;;;;;;;4.73;3.00;;;;;;;;;;6278787;28;20185;-66
2023/12/29 14:49:37;;;;;;;3.30;2.93;;;;;;;;;;6299992;28;20239;-66
2023/12/29 14:52:38;;;;;;;4.50;3.20;;;;;;;;;;6290178;28;20192;-66
2023/12/29 14:55:39;;;;;;;4.37;2.53;;;;;;;;;;6301378;28;20234;-65
2023/12/29 14:58:40;;;;;;;3.70;2.80;;;;;;;;;;6292038;28;20216;-63
2023/12/29 15:01:42;;;;;;;4.27;2.70;;;;;;;;;;6296670;28;20207;-64
2023/12/29 15:04:43;;;;;;;4.37;3.40;;;;;;;;;;6294165;28;20244;-66
2023/12/29 15:07:44;;;;;;;3.30;3.00;;;;;;;;;;6290567;28;20196;-67
2023/12/29 15:10:45;;;;;;;3.27;2.43;;;;;;;;;;6291209;28;20280;-67
2023/12/29 15:13:46;;;;;;;6.77;3.30;;;;;;;;;;6299755;28;20191;-67
2023/12/29 15:16:47;;;;;;;5.53;4.03;;;;;;;;;;6306109;28;20249;-67
2023/12/29 15:19:48;;;;;;;5.20;3.63;;;;;;;;;;6293666;28;20196;-67
2023/12/29 15:22:49;;;;;;;4.47;3.70;;;;;;;;;;6308116;28;20192;-68
2023/12/29 15:25:51;;;;;;;3.47;3.00;;;;;;;;;;6295585;28;20678;-64
2023/12/29 15:28:52;;;;;;;4.67;3.30;;;;;;;;;;6289311;28;20246;-64
2023/12/29 15:31:53;;;;;;;4.20;3.23;;;;;;;;;;6287048;28;20288;-65
2023/12/29 15:34:54;;;;;;;4.53;3.33;;;;;;;;;;6286702;28;20639;-66
2023/12/29 15:37:55;;;;;;;5.72;4.20;;;;;;;;;;6288664;28;20764;-65
2023/12/29 15:40:56;;;;;;;3.93;3.20;;;;;;;;;;6292368;28;20180;-64
2023/12/29 15:43:57;;;;;;;4.03;2.93;;;;;;;;;;6281449;28;20215;-64
2023/12/29 15:46:58;;;;;;;5.30;3.70;;;;;;;;;;6277926;28;20230;-64
2023/12/29 15:49:59;;;;;;;3.87;3.17;;;;;;;;;;6287380;28;20185;-64
2023/12/29 15:53:01;;;;;;;6.77;4.10;;;;;;;;;;6277335;28;20189;-64
2023/12/29 15:56:05;;;;;;;6.27;4.90;;;;;;;;;;6281794;28;20243;-64
2023/12/29 15:59:06;;;;;;;6.17;4.47;;;;;;;;;;6301947;28;20227;-64
2023/12/29 16:02:07;;;;;;;7.63;4.93;;;;;;;;;;6283150;28;20254;-64
2023/12/29 16:05:08;;;;;;;6.90;4.70;;;;;;;;;;6281307;28;20290;-65
2023/12/29 16:08:10;;;;;;;7.33;4.10;;;;;;;;;;6281550;28;20193;-65
2023/12/29 16:11:20;;;;;;;10.33;4.73;;;;;;;;;;6286544;28;20280;-65
2023/12/29 16:14:21;;;;;;;7.33;4.70;;;9.80;54.90;;;;;;6302199;28;20761;-65
2023/12/29 16:17:22;;;;;;;5.23;4.17;;;5.60;69.10;;;;;;6287106;28;20212;-64
2023/12/29 16:20:22;;;;;;;5.67;3.87;;;5.60;69.50;;;;;;6265055;28;20189;-65
2023/12/29 16:23:23;;;;;;;5.27;3.67;;;5.50;69.00;;;;;;6283666;28;20203;-65
2023/12/29 16:26:24;;;;;;;5.00;3.40;;;5.50;69.80;;;;;;6262591;28;20219;-65
2023/12/29 16:29:24;;;;;;;5.57;3.53;;;5.40;69.60;;;;;;6259654;28;20189;-65
2023/12/29 16:32:32;;;;;;;5.53;3.53;;;5.30;70.10;;;;;;6283440;28;20204;-65
2023/12/29 16:35:32;;;;;;;3.93;3.30;;;5.30;70.40;;;;;;6282049;28;20204;-65
2023/12/29 16:38:33;;;;;;;4.10;3.07;;;5.30;70.40;;;;;;6263958;28;20216;-65
2023/12/29 16:41:34;;;;;;;5.63;3.17;;;5.30;70.40;;;;;;6271134;28;20189;-65
2023/12/29 16:44:34;;;;;;;5.93;3.57;;;5.10;70.30;;;;;;6269975;28;20188;-66
2023/12/29 16:47:35;;;;;;;7.80;4.60;;;5.10;70.70;;;;;;6259310;28;20192;-66
2023/12/29 16:50:36;;;;;;;6.43;4.47;;;5.00;71.60;;;;;;6256027;28;20211;-65
2023/12/29 16:53:38;;;;;;;5.57;4.20;;;5.00;71.80;;;;;;6265104;28;20279;-65
2023/12/29 16:56:39;;;;;;;4.17;3.43;;;4.90;72.10;;;;;;6303586;28;20322;-65
2023/12/29 16:59:41;;;;;;;6.20;4.10;;;4.90;71.70;;;;;;6281060;28;20196;-65
2023/12/29 17:02:42;;;;;;;8.30;3.60;;;4.80;72.10;;;;;;6287354;28;20207;-65
2023/12/29 17:05:43;;;;;;;6.60;4.23;;;4.80;72.20;;;;;;6270955;28;20207;-66
2023/12/29 17:08:44;;;;;;;4.93;3.50;;;4.70;72.40;;;;;;6269454;28;20197;-65
2023/12/29 17:11:44;;;;;;;6.13;3.53;;;-8.50;73.00;;;;;;6301022;28;20226;-65
2023/12/29 17:14:45;;;;;;;4.97;3.53;;;4.70;72.30;;;;;;6282761;28;20199;-65
2023/12/29 17:17:46;;;;;;;4.30;3.37;;;4.70;72.10;;;;;;6288963;28;20224;-65
2023/12/29 17:20:46;;;;;;;5.37;3.30;;;4.70;72.20;;;;;;6255244;28;20299;-65
2023/12/29 17:23:47;;;;;;;6.53;3.63;;;4.70;72.60;;;;;;6272550;28;20192;-67